Time,TemperatureF,DewpointF,PressureIn,WindDirection,WindDirectionDegrees,WindSpeedMPH,WindSpeedGustMPH,Humidity,HourlyPrecipIn,Conditions,Clouds,dailyrainin,SoftwareType,DateUTC
2013-01-09 00:00:00,44.7,44.2,30.11,North,0,0.0,0.0,98,0.00,,,0.00,LWC V2.00 B2112,2013-01-09 08:00:00,
2013-01-09 00:10:00,44.7,44.2,30.11,North,0,0.0,0.0,98,0.00,,,0.00,LWC V2.00 B2112,2013-01-09 08:10:00,
2013-01-09 00:20:00,44.7,44.2,30.11,North,0,0.0,0.0,98,0.00,,,0.00,LWC V2.00 B2112,2013-01-09 08:20:00,
2013-01-09 00:30:00,43.4,42.9,30.11,North,0,0.0,0.0,98,0.00,,,0.00,LWC V2.00 B2112,2013-01-09 08:30:00,
2013-01-09 00:40:00,43.4,42.9,30.11,North,0,0.0,0.0,98,0.00,,,0.00,LWC V2.00 B2112,2013-01-09 08:40:00,
2013-01-09 00:50:00,43.4,42.9,30.11,North,0,0.0,0.0,98,0.00,,,0.00,LWC V2.00 B2112,2013-01-09 08:50:00,
2013-01-09 01:00:00,43.2,42.9,30.11,North,0,0.0,0.0,99,0.00,,,0.00,LWC V2.00 B2112,2013-01-09 09:00:00,
2013-01-09 01:10:00,43.2,42.9,30.11,North,0,0.0,0.0,99,0.00,,,0.00,LWC V2.00 B2112,2013-01-09 09:10:00,
2013-01-09 01:20:00,43.2,42.9,30.11,North,0,0.0,0.0,99,0.00,,,0.00,LWC V2.00 B2112,2013-01-09 09:20:00,
2013-01-09 01:30:00,42.9,42.6,30.10,North,0,0.0,0.0,99,0.00,,,0.00,LWC V2.00 B2112,2013-01-09 09:30:00,
2013-01-09 01:40:00,42.9,42.6,30.10,North,0,0.0,0.0,99,0.00,,,0.00,LWC V2.00 B2112,2013-01-09 09:40:00,
2013-01-09 01:50:00,42.9,42.6,30.10,North,0,0.0,0.0,99,0.00,,,0.00,LWC V2.00 B2112,2013-01-09 09:50:00,
2013-01-09 02:00:00,42.6,42.3,30.11,North,0,0.0,0.0,99,0.00,,,0.00,LWC V2.00 B2112,2013-01-09 10:00:00,
2013-01-09 02:10:00,42.6,42.3,30.11,North,0,0.0,0.0,99,0.00,,,0.00,LWC V2.00 B2112,2013-01-09 10:10:00,
2013-01-09 02:20:00,42.6,42.3,30.11,North,0,0.0,0.0,99,0.00,,,0.00,LWC V2.00 B2112,2013-01-09 10:20:00,
2013-01-09 02:30:00,43.0,42.7,30.10,North,0,0.0,0.0,99,0.00,,,0.00,LWC V2.00 B2112,2013-01-09 10:30:00,
2013-01-09 02:40:00,43.0,42.7,30.10,North,0,0.0,0.0,99,0.00,,,0.00,LWC V2.00 B2112,2013-01-09 10:40:00,
2013-01-09 02:50:00,43.0,42.7,30.10,North,0,0.0,0.0,99,0.00,,,0.00,LWC V2.00 B2112,2013-01-09 10:50:00,
2013-01-09 03:00:00,43.0,42.7,30.10,North,0,0.0,0.0,99,0.00,,,0.00,LWC V2.00 B2112,2013-01-09 11:00:00,
2013-01-09 03:10:00,42.3,42.0,30.10,North,0,0.0,0.0,99,0.00,,,0.00,LWC V2.00 B2112,2013-01-09 11:10:00,
2013-01-09 03:20:00,42.3,42.0,30.10,North,0,0.0,0.0,99,0.00,,,0.00,LWC V2.00 B2112,2013-01-09 11:20:00,
2013-01-09 03:30:00,42.3,42.0,30.10,North,0,0.0,0.0,99,0.00,,,0.00,LWC V2.00 B2112,2013-01-09 11:30:00,
2013-01-09 03:40:00,41.9,41.6,30.10,North,0,0.0,0.0,99,0.00,,,0.00,LWC V2.00 B2112,2013-01-09 11:40:00,
2013-01-09 03:50:00,41.9,41.6,30.10,North,0,0.0,0.0,99,0.00,,,0.00,LWC V2.00 B2112,2013-01-09 11:50:00,
2013-01-09 04:00:00,41.9,41.6,30.10,North,0,0.0,0.0,99,0.00,,,0.00,LWC V2.00 B2112,2013-01-09 12:00:00,
2013-01-09 04:10:00,40.6,40.3,30.08,North,0,0.0,0.0,99,0.00,,,0.00,LWC V2.00 B2112,2013-01-09 12:10:00,
2013-01-09 04:20:00,40.6,40.3,30.08,North,0,0.0,0.0,99,0.00,,,0.00,LWC V2.00 B2112,2013-01-09 12:20:00,
2013-01-09 04:30:00,40.6,40.3,30.08,North,0,0.0,0.0,99,0.00,,,0.00,LWC V2.00 B2112,2013-01-09 12:30:00,
2013-01-09 04:40:00,40.4,40.1,30.07,North,0,0.0,0.0,99,0.00,,,0.00,LWC V2.00 B2112,2013-01-09 12:40:00,
2013-01-09 04:50:00,40.4,40.1,30.07,North,0,0.0,0.0,99,0.00,,,0.00,LWC V2.00 B2112,2013-01-09 12:50:00,
2013-01-09 05:00:00,40.4,40.1,30.07,North,0,0.0,0.0,99,0.00,,,0.00,LWC V2.00 B2112,2013-01-09 13:00:00,
2013-01-09 05:10:00,40.2,39.9,30.07,North,0,0.0,0.0,99,0.00,,,0.00,LWC V2.00 B2112,2013-01-09 13:10:00,
2013-01-09 05:20:00,40.2,39.9,30.07,North,0,0.0,0.0,99,0.00,,,0.00,LWC V2.00 B2112,2013-01-09 13:20:00,
2013-01-09 05:30:00,40.2,39.9,30.07,North,0,0.0,0.0,99,0.00,,,0.00,LWC V2.00 B2112,2013-01-09 13:30:00,
2013-01-09 05:40:00,40.4,40.1,30.08,North,0,0.0,0.0,99,0.00,,,0.00,LWC V2.00 B2112,2013-01-09 13:40:00,
2013-01-09 05:50:00,40.4,40.1,30.08,North,0,0.0,0.0,99,0.00,,,0.00,LWC V2.00 B2112,2013-01-09 13:50:00,
2013-01-09 06:00:00,40.4,40.1,30.08,North,0,0.0,0.0,99,0.00,,,0.00,LWC V2.00 B2112,2013-01-09 14:00:00,
2013-01-09 06:10:00,40.5,40.2,30.08,North,0,0.0,0.0,99,0.00,,,0.00,LWC V2.00 B2112,2013-01-09 14:10:00,
2013-01-09 06:20:00,40.5,40.2,30.08,North,0,0.0,0.0,99,0.00,,,0.00,LWC V2.00 B2112,2013-01-09 14:20:00,
2013-01-09 06:30:00,40.5,40.2,30.08,North,0,0.0,0.0,99,0.00,,,0.00,LWC V2.00 B2112,2013-01-09 14:30:00,
2013-01-09 06:40:00,39.9,39.7,30.08,North,0,0.0,0.0,99,0.00,,,0.00,LWC V2.00 B2112,2013-01-09 14:40:00,
2013-01-09 06:50:00,39.9,39.7,30.08,North,0,0.0,0.0,99,0.00,,,0.00,LWC V2.00 B2112,2013-01-09 14:50:00,
2013-01-09 07:00:00,39.9,39.7,30.08,North,0,0.0,0.0,99,0.00,,,0.00,LWC V2.00 B2112,2013-01-09 15:00:00,
2013-01-09 07:10:00,39.3,39.0,30.08,North,0,0.0,0.0,99,0.00,,,0.00,LWC V2.00 B2112,2013-01-09 15:10:00,
2013-01-09 07:27:00,40.0,39.7,30.08,ESE,120,0.0,0.0,99,0.00,,,0.00,LWC V2.00 B2112,2013-01-09 15:27:00,
2013-01-09 07:32:00,40.3,40.0,30.08,ESE,120,0.0,0.0,99,0.00,,,0.00,LWC V2.00 B2112,2013-01-09 15:32:00,
2013-01-09 07:37:00,40.5,40.2,30.08,ESE,120,0.0,0.0,99,0.00,,,0.00,LWC V2.00 B2112,2013-01-09 15:37:00,
2013-01-09 07:42:00,40.6,40.3,30.08,ESE,120,0.0,0.0,99,0.00,,,0.00,LWC V2.00 B2112,2013-01-09 15:42:00,
2013-01-09 07:47:00,40.9,40.6,30.08,ESE,120,0.0,0.0,99,0.00,,,0.00,LWC V2.00 B2112,2013-01-09 15:47:00,
2013-01-09 07:52:00,41.3,41.0,30.08,ESE,120,0.0,0.0,99,0.00,,,0.00,LWC V2.00 B2112,2013-01-09 15:52:00,
2013-01-09 07:57:00,41.6,41.3,30.08,ESE,120,0.0,0.0,99,0.00,,,0.00,LWC V2.00 B2112,2013-01-09 15:57:00,
2013-01-09 08:02:00,41.7,41.4,30.08,ESE,120,0.0,0.0,99,0.00,,,0.00,LWC V2.00 B2112,2013-01-09 16:02:00,
2013-01-09 08:07:00,41.9,41.6,30.08,ESE,121,0.0,0.0,99,0.00,,,0.00,LWC V2.00 B2112,2013-01-09 16:07:00,
2013-01-09 08:12:00,42.0,41.7,30.08,ESE,121,0.0,0.0,99,0.00,,,0.00,LWC V2.00 B2112,2013-01-09 16:12:00,
2013-01-09 08:17:00,42.2,41.9,30.08,ESE,121,0.0,0.0,99,0.00,,,0.00,LWC V2.00 B2112,2013-01-09 16:17:00,
2013-01-09 08:22:00,42.4,42.1,30.08,ESE,121,0.0,0.0,99,0.00,,,0.00,LWC V2.00 B2112,2013-01-09 16:22:00,
2013-01-09 08:27:00,42.5,42.2,30.07,ESE,122,0.0,0.0,99,0.00,,,0.00,LWC V2.00 B2112,2013-01-09 16:27:00,
2013-01-09 08:32:00,42.7,42.4,30.08,ESE,122,0.0,0.0,99,0.00,,,0.00,LWC V2.00 B2112,2013-01-09 16:32:00,
2013-01-09 08:37:00,42.9,42.6,30.07,ESE,121,0.0,0.0,99,0.00,,,0.00,LWC V2.00 B2112,2013-01-09 16:37:00,
2013-01-09 08:42:00,43.1,42.8,30.08,ESE,122,0.0,0.0,99,0.00,,,0.00,LWC V2.00 B2112,2013-01-09 16:42:00,
2013-01-09 08:47:00,43.3,43.0,30.08,ESE,122,0.0,0.0,99,0.00,,,0.00,LWC V2.00 B2112,2013-01-09 16:47:00,
2013-01-09 08:52:00,43.6,43.3,30.07,ESE,122,0.0,0.0,99,0.00,,,0.00,LWC V2.00 B2112,2013-01-09 16:52:00,
2013-01-09 08:57:00,43.9,43.6,30.07,ESE,121,0.0,0.0,99,0.00,,,0.00,LWC V2.00 B2112,2013-01-09 16:57:00,
2013-01-09 09:02:00,44.1,43.8,30.07,ESE,122,0.0,0.0,99,0.00,,,0.00,LWC V2.00 B2112,2013-01-09 17:02:00,
2013-01-09 09:07:00,44.5,44.2,30.07,ESE,121,0.0,0.0,99,0.00,,,0.00,LWC V2.00 B2112,2013-01-09 17:07:00,
2013-01-09 09:12:00,44.7,44.4,30.07,ESE,121,0.0,0.0,99,0.00,,,0.00,LWC V2.00 B2112,2013-01-09 17:12:00,
2013-01-09 09:17:00,44.9,44.6,30.08,ESE,122,0.0,0.0,99,0.00,,,0.00,LWC V2.00 B2112,2013-01-09 17:17:00,
2013-01-09 09:22:00,45.1,44.8,30.07,ESE,121,0.0,0.0,99,0.00,,,0.00,LWC V2.00 B2112,2013-01-09 17:22:00,
2013-01-09 09:27:00,45.4,45.1,30.07,ESE,121,0.0,0.0,99,0.00,,,0.00,LWC V2.00 B2112,2013-01-09 17:27:00,
2013-01-09 09:32:00,45.6,45.3,30.07,ESE,118,0.0,0.0,99,0.00,,,0.00,LWC V2.00 B2112,2013-01-09 17:32:00,
2013-01-09 09:37:00,45.7,45.4,30.07,ESE,118,0.0,0.0,99,0.00,,,0.00,LWC V2.00 B2112,2013-01-09 17:37:00,
2013-01-09 09:42:00,45.9,45.6,30.07,SE,127,0.0,0.0,99,0.00,,,0.00,LWC V2.00 B2112,2013-01-09 17:42:00,
2013-01-09 09:47:00,46.1,45.8,30.07,SE,127,0.0,0.0,99,0.00,,,0.00,LWC V2.00 B2112,2013-01-09 17:47:00,
2013-01-09 09:52:00,46.4,46.1,30.06,SE,127,0.0,0.0,99,0.00,,,0.00,LWC V2.00 B2112,2013-01-09 17:52:00,
2013-01-09 09:57:00,46.7,46.4,30.06,ESE,117,0.0,0.0,99,0.00,,,0.00,LWC V2.00 B2112,2013-01-09 17:57:00,
2013-01-09 10:02:00,46.7,46.4,30.06,East,91,0.0,0.0,99,0.00,,,0.00,LWC V2.00 B2112,2013-01-09 18:02:00,
2013-01-09 10:07:00,46.9,46.6,30.05,East,90,0.0,0.0,99,0.00,,,0.00,LWC V2.00 B2112,2013-01-09 18:07:00,
2013-01-09 10:12:00,47.3,47.0,30.05,East,90,0.0,0.0,99,0.00,,,0.00,LWC V2.00 B2112,2013-01-09 18:12:00,
2013-01-09 10:17:00,47.6,47.3,30.05,East,84,0.0,0.0,99,0.00,,,0.00,LWC V2.00 B2112,2013-01-09 18:17:00,
2013-01-09 10:22:00,47.7,47.4,30.05,ESE,105,0.0,0.0,99,0.00,,,0.00,LWC V2.00 B2112,2013-01-09 18:22:00,
2013-01-09 10:27:00,47.9,47.6,30.05,ESE,105,0.0,0.0,99,0.00,,,0.00,LWC V2.00 B2112,2013-01-09 18:27:00,
2013-01-09 10:32:00,48.1,47.8,30.05,ESE,105,0.0,0.0,99,0.00,,,0.00,LWC V2.00 B2112,2013-01-09 18:32:00,
2013-01-09 10:37:00,48.4,48.1,30.05,ESE,105,0.0,0.0,99,0.00,,,0.00,LWC V2.00 B2112,2013-01-09 18:37:00,
2013-01-09 10:41:00,48.6,48.3,30.05,ESE,105,0.0,0.0,99,0.00,,,0.00,LWC V2.00 B2112,2013-01-09 18:41:00,
2013-01-09 10:44:00,48.8,48.5,30.05,ESE,105,0.0,0.0,99,0.00,,,0.00,LWC V2.00 B2112,2013-01-09 18:44:00,
2013-01-09 10:48:00,48.8,48.5,30.05,ESE,105,0.0,0.0,99,0.00,,,0.00,LWC V2.00 B2112,2013-01-09 18:48:00,
2013-01-09 10:53:00,49.2,48.9,30.05,ESE,105,0.0,0.0,99,0.00,,,0.00,LWC V2.00 B2112,2013-01-09 18:53:00,
2013-01-09 10:58:00,49.4,49.1,30.04,ESE,103,0.0,0.0,99,0.00,,,0.00,LWC V2.00 B2112,2013-01-09 18:58:00,
2013-01-09 11:03:00,49.4,49.1,30.04,East,96,0.0,0.0,99,0.00,,,0.00,LWC V2.00 B2112,2013-01-09 19:03:00,
2013-01-09 11:08:00,49.3,49.0,30.04,East,94,0.0,0.0,99,0.00,,,0.00,LWC V2.00 B2112,2013-01-09 19:08:00,
2013-01-09 11:13:00,49.4,49.1,30.04,East,88,1.0,1.0,99,0.00,,,0.00,LWC V2.00 B2112,2013-01-09 19:13:00,
2013-01-09 11:18:00,49.7,49.4,30.03,ENE,77,1.0,1.0,99,0.00,,,0.00,LWC V2.00 B2112,2013-01-09 19:18:00,
2013-01-09 11:23:00,50.5,50.2,30.03,SSE,167,0.0,0.0,99,0.00,,,0.00,LWC V2.00 B2112,2013-01-09 19:23:00,
2013-01-09 11:28:00,51.1,50.8,30.02,ESE,113,1.0,4.0,99,0.00,,,0.00,LWC V2.00 B2112,2013-01-09 19:28:00,
2013-01-09 11:33:00,51.4,51.1,30.02,SW,214,0.0,1.0,99,0.00,,,0.00,LWC V2.00 B2112,2013-01-09 19:33:00,
2013-01-09 11:38:00,51.7,51.4,30.02,East,82,2.0,6.0,99,0.00,,,0.00,LWC V2.00 B2112,2013-01-09 19:38:00,
2013-01-09 11:43:00,52.0,51.7,30.02,SE,135,1.0,2.0,99,0.00,,,0.00,LWC V2.00 B2112,2013-01-09 19:43:00,
2013-01-09 11:48:00,52.0,51.7,30.02,East,94,1.0,5.0,99,0.00,,,0.00,LWC V2.00 B2112,2013-01-09 19:48:00,
2013-01-09 11:53:00,52.2,51.9,30.02,NNW,329,1.0,2.0,99,0.00,,,0.00,LWC V2.00 B2112,2013-01-09 19:53:00,
2013-01-09 11:58:00,52.5,52.0,30.02,NW,314,2.0,2.0,98,0.00,,,0.00,LWC V2.00 B2112,2013-01-09 19:58:00,
2013-01-09 12:03:00,52.5,52.0,30.01,NW,315,0.0,4.0,98,0.00,,,0.00,LWC V2.00 B2112,2013-01-09 20:03:00,
2013-01-09 12:08:00,52.6,51.8,30.01,ESE,107,2.0,3.0,97,0.00,,,0.00,LWC V2.00 B2112,2013-01-09 20:08:00,
2013-01-09 12:13:00,52.8,52.0,30.01,East,95,1.0,2.0,97,0.00,,,0.00,LWC V2.00 B2112,2013-01-09 20:13:00,
2013-01-09 12:18:00,53.0,51.9,30.01,ENE,58,0.0,2.0,96,0.00,,,0.00,LWC V2.00 B2112,2013-01-09 20:18:00,
2013-01-09 12:23:00,53.1,52.0,30.00,NNE,16,1.0,4.0,96,0.00,,,0.00,LWC V2.00 B2112,2013-01-09 20:23:00,
2013-01-09 12:28:00,53.2,51.8,30.00,NNW,339,1.0,3.0,95,0.00,,,0.00,LWC V2.00 B2112,2013-01-09 20:28:00,
2013-01-09 12:33:00,53.3,51.6,30.00,NNE,18,1.0,1.0,94,0.00,,,0.00,LWC V2.00 B2112,2013-01-09 20:33:00,
2013-01-09 12:38:00,53.5,51.8,29.99,NNE,20,1.0,3.0,94,0.00,,,0.00,LWC V2.00 B2112,2013-01-09 20:38:00,
2013-01-09 12:43:00,53.6,51.9,29.99,West,259,2.0,3.0,94,0.00,,,0.00,LWC V2.00 B2112,2013-01-09 20:43:00,
2013-01-09 12:48:00,53.6,51.9,29.99,NW,321,0.0,1.0,94,0.00,,,0.00,LWC V2.00 B2112,2013-01-09 20:48:00,
2013-01-09 12:53:00,53.6,51.9,29.98,NW,321,4.0,4.0,94,0.00,,,0.00,LWC V2.00 B2112,2013-01-09 20:53:00,
2013-01-09 12:58:00,53.6,51.9,29.98,NW,304,0.0,4.0,94,0.00,,,0.00,LWC V2.00 B2112,2013-01-09 20:58:00,
2013-01-09 13:03:00,53.5,51.8,29.98,ENE,77,1.0,1.0,94,0.00,,,0.00,LWC V2.00 B2112,2013-01-09 21:03:00,
2013-01-09 13:08:00,53.5,51.8,29.98,ESE,105,0.0,3.0,94,0.00,,,0.00,LWC V2.00 B2112,2013-01-09 21:08:00,
2013-01-09 13:13:00,53.3,51.6,29.98,SW,218,0.0,0.0,94,0.00,,,0.00,LWC V2.00 B2112,2013-01-09 21:13:00,
2013-01-09 13:18:00,53.2,51.8,29.98,North,5,1.0,1.0,95,0.00,,,0.01,LWC V2.00 B2112,2013-01-09 21:18:00,
2013-01-09 13:23:00,53.0,51.6,29.97,South,175,1.0,1.0,95,0.00,,,0.01,LWC V2.00 B2112,2013-01-09 21:23:00,
2013-01-09 13:28:00,52.7,51.3,29.98,South,184,3.0,3.0,95,0.05,,,0.02,LWC V2.00 B2112,2013-01-09 21:28:00,
2013-01-09 13:33:00,52.0,50.3,29.98,ENE,58,1.0,3.0,94,0.09,,,0.03,LWC V2.00 B2112,2013-01-09 21:33:00,
2013-01-09 13:38:00,51.4,50.0,29.99,WSW,247,3.0,8.0,95,0.09,,,0.03,LWC V2.00 B2112,2013-01-09 21:38:00,
2013-01-09 13:43:00,50.9,49.5,29.98,SE,127,2.0,8.0,95,0.05,,,0.03,LWC V2.00 B2112,2013-01-09 21:43:00,
2013-01-09 13:48:00,50.5,49.1,29.98,WNW,300,0.0,3.0,95,0.04,,,0.03,LWC V2.00 B2112,2013-01-09 21:48:00,
2013-01-09 13:53:00,50.4,49.3,29.99,South,180,2.0,4.0,96,0.00,,,0.03,LWC V2.00 B2112,2013-01-09 21:53:00,
2013-01-09 13:58:00,50.1,49.0,29.98,ENE,64,2.0,4.0,96,0.00,,,0.03,LWC V2.00 B2112,2013-01-09 21:58:00,
2013-01-09 14:03:00,49.9,48.8,29.98,ENE,68,3.0,3.0,96,0.00,,,0.03,LWC V2.00 B2112,2013-01-09 22:03:00,
2013-01-09 14:08:00,49.7,48.6,29.98,ESE,103,0.0,6.0,96,0.00,,,0.03,LWC V2.00 B2112,2013-01-09 22:08:00,
2013-01-09 14:13:00,49.5,48.4,29.98,ESE,105,6.0,6.0,96,0.00,,,0.03,LWC V2.00 B2112,2013-01-09 22:13:00,
2013-01-09 14:18:00,49.3,48.2,29.98,ESE,117,1.0,9.0,96,0.00,,,0.03,LWC V2.00 B2112,2013-01-09 22:18:00,
2013-01-09 14:23:00,49.3,48.2,29.99,ENE,76,2.0,3.0,96,0.00,,,0.03,LWC V2.00 B2112,2013-01-09 22:23:00,
2013-01-09 14:28:00,49.2,48.1,29.98,ENE,65,2.0,8.0,96,0.00,,,0.03,LWC V2.00 B2112,2013-01-09 22:28:00,
2013-01-09 14:33:00,49.2,48.1,29.99,SE,145,1.0,8.0,96,0.00,,,0.03,LWC V2.00 B2112,2013-01-09 22:33:00,
2013-01-09 14:38:00,49.1,48.0,29.98,SE,134,1.0,4.0,96,0.00,,,0.03,LWC V2.00 B2112,2013-01-09 22:38:00,
2013-01-09 14:43:00,49.1,48.0,29.98,SE,145,0.0,4.0,96,0.00,,,0.03,LWC V2.00 B2112,2013-01-09 22:43:00,
2013-01-09 14:48:00,49.0,47.9,29.98,ESE,110,1.0,2.0,96,0.00,,,0.03,LWC V2.00 B2112,2013-01-09 22:48:00,
2013-01-09 14:53:00,49.0,47.6,29.98,ENE,70,2.0,6.0,95,0.00,,,0.03,LWC V2.00 B2112,2013-01-09 22:53:00,
2013-01-09 14:58:00,49.1,47.7,29.98,East,91,1.0,5.0,95,0.00,,,0.03,LWC V2.00 B2112,2013-01-09 22:58:00,
2013-01-09 15:03:00,49.3,47.6,29.99,SSE,156,3.0,6.0,94,0.00,,,0.03,LWC V2.00 B2112,2013-01-09 23:03:00,
2013-01-09 15:08:00,49.2,47.5,29.99,South,169,3.0,5.0,94,0.00,,,0.03,LWC V2.00 B2112,2013-01-09 23:08:00,
2013-01-09 15:13:00,49.1,47.2,29.99,ENE,74,2.0,6.0,93,0.00,,,0.03,LWC V2.00 B2112,2013-01-09 23:13:00,
2013-01-09 15:18:00,48.9,47.0,29.99,ESE,122,1.0,6.0,93,0.00,,,0.03,LWC V2.00 B2112,2013-01-09 23:18:00,
2013-01-09 15:23:00,48.7,46.5,29.99,North,349,3.0,8.0,92,0.00,,,0.03,LWC V2.00 B2112,2013-01-09 23:23:00,
2013-01-09 15:28:00,48.6,46.1,29.99,NNW,330,7.0,9.0,91,0.00,,,0.04,LWC V2.00 B2112,2013-01-09 23:28:00,
2013-01-09 15:33:00,48.7,45.9,29.99,WNW,293,2.0,5.0,90,0.00,,,0.04,LWC V2.00 B2112,2013-01-09 23:33:00,
2013-01-09 15:38:00,48.7,45.9,29.99,ESE,108,6.0,6.0,90,0.00,,,0.04,LWC V2.00 B2112,2013-01-09 23:38:00,
2013-01-09 15:43:00,48.7,45.6,29.99,NNE,22,1.0,4.0,89,0.00,,,0.04,LWC V2.00 B2112,2013-01-09 23:43:00,
2013-01-09 15:48:00,48.6,45.5,29.99,ESE,102,2.0,5.0,89,0.00,,,0.04,LWC V2.00 B2112,2013-01-09 23:48:00,
2013-01-09 15:53:00,48.5,45.4,29.99,SE,134,3.0,12.0,89,0.00,,,0.04,LWC V2.00 B2112,2013-01-09 23:53:00,
2013-01-09 15:58:00,48.5,45.1,29.99,SE,133,1.0,4.0,88,0.00,,,0.04,LWC V2.00 B2112,2013-01-09 23:58:00,
2013-01-09 16:03:00,48.4,45.0,29.99,ESE,105,2.0,5.0,88,0.00,,,0.04,LWC V2.00 B2112,2013-01-10 00:03:00,
2013-01-09 16:08:00,48.2,44.8,29.99,ESE,112,1.0,2.0,88,0.00,,,0.04,LWC V2.00 B2112,2013-01-10 00:08:00,
2013-01-09 16:13:00,48.1,44.7,29.99,SE,136,1.0,4.0,88,0.00,,,0.04,LWC V2.00 B2112,2013-01-10 00:13:00,
2013-01-09 16:18:00,48.0,44.3,29.99,South,184,4.0,6.0,87,0.00,,,0.04,LWC V2.00 B2112,2013-01-10 00:18:00,
2013-01-09 16:23:00,48.1,44.1,29.98,SE,129,2.0,3.0,86,0.00,,,0.04,LWC V2.00 B2112,2013-01-10 00:23:00,
2013-01-09 16:28:00,48.2,44.5,29.99,WSW,252,0.0,2.0,87,0.00,,,0.04,LWC V2.00 B2112,2013-01-10 00:28:00,
2013-01-09 16:33:00,48.1,44.4,29.98,ESE,110,1.0,2.0,87,0.00,,,0.04,LWC V2.00 B2112,2013-01-10 00:33:00,
2013-01-09 16:38:00,48.1,44.4,29.98,SE,135,1.0,5.0,87,0.00,,,0.04,LWC V2.00 B2112,2013-01-10 00:38:00,
2013-01-09 16:43:00,48.0,44.0,29.98,NNW,338,1.0,2.0,86,0.00,,,0.04,LWC V2.00 B2112,2013-01-10 00:43:00,
2013-01-09 16:48:00,48.1,43.5,29.98,WSW,243,0.0,6.0,84,0.00,,,0.04,LWC V2.00 B2112,2013-01-10 00:48:00,
2013-01-09 16:53:00,48.1,43.2,29.98,East,88,2.0,4.0,83,0.00,,,0.04,LWC V2.00 B2112,2013-01-10 00:53:00,
2013-01-09 16:58:00,48.1,43.5,29.98,NW,304,2.0,2.0,84,0.00,,,0.04,LWC V2.00 B2112,2013-01-10 00:58:00,
2013-01-09 17:03:00,47.9,43.3,29.98,SSW,211,1.0,4.0,84,0.00,,,0.04,LWC V2.00 B2112,2013-01-10 01:03:00,
2013-01-09 17:08:00,47.8,42.9,29.98,South,169,0.0,2.0,83,0.00,,,0.04,LWC V2.00 B2112,2013-01-10 01:08:00,
2013-01-09 17:13:00,47.7,42.5,29.98,NNE,25,3.0,6.0,82,0.00,,,0.04,LWC V2.00 B2112,2013-01-10 01:13:00,
2013-01-09 17:18:00,47.6,42.4,29.98,ESE,103,2.0,3.0,82,0.00,,,0.04,LWC V2.00 B2112,2013-01-10 01:18:00,
2013-01-09 17:23:00,47.5,42.3,29.98,NE,43,4.0,4.0,82,0.00,,,0.04,LWC V2.00 B2112,2013-01-10 01:23:00,
2013-01-09 17:28:00,47.5,42.3,29.98,WNW,300,2.0,4.0,82,0.00,,,0.04,LWC V2.00 B2112,2013-01-10 01:28:00,
2013-01-09 17:33:00,47.3,42.4,29.98,SW,236,0.0,3.0,83,0.00,,,0.04,LWC V2.00 B2112,2013-01-10 01:33:00,
2013-01-09 17:38:00,47.1,42.2,29.99,NNW,329,2.0,5.0,83,0.00,,,0.04,LWC V2.00 B2112,2013-01-10 01:38:00,
2013-01-09 17:43:00,46.8,41.6,29.99,East,98,2.0,2.0,82,0.00,,,0.04,LWC V2.00 B2112,2013-01-10 01:43:00,
2013-01-09 17:48:00,46.7,41.5,29.99,NW,326,1.0,3.0,82,0.00,,,0.04,LWC V2.00 B2112,2013-01-10 01:48:00,
2013-01-09 17:53:00,46.6,41.4,29.99,SSE,148,1.0,2.0,82,0.00,,,0.04,LWC V2.00 B2112,2013-01-10 01:53:00,
2013-01-09 17:58:00,46.4,41.2,29.99,SE,127,2.0,2.0,82,0.00,,,0.04,LWC V2.00 B2112,2013-01-10 01:58:00,
2013-01-09 18:03:00,46.4,41.2,29.99,SW,218,1.0,2.0,82,0.00,,,0.04,LWC V2.00 B2112,2013-01-10 02:03:00,
2013-01-09 18:08:00,46.4,41.2,29.99,WNW,293,3.0,4.0,82,0.00,,,0.04,LWC V2.00 B2112,2013-01-10 02:08:00,
2013-01-09 18:13:00,46.5,40.7,29.99,East,94,2.0,2.0,80,0.00,,,0.04,LWC V2.00 B2112,2013-01-10 02:13:00,
2013-01-09 18:18:00,46.6,40.4,29.99,SE,146,1.0,6.0,79,0.00,,,0.04,LWC V2.00 B2112,2013-01-10 02:18:00,
2013-01-09 18:23:00,46.6,41.1,29.99,SSE,158,0.0,2.0,81,0.00,,,0.04,LWC V2.00 B2112,2013-01-10 02:23:00,
2013-01-09 18:28:00,46.5,41.3,29.99,ESE,110,0.0,1.0,82,0.00,,,0.04,LWC V2.00 B2112,2013-01-10 02:28:00,
2013-01-09 18:33:00,46.4,41.2,29.99,SE,127,1.0,2.0,82,0.00,,,0.04,LWC V2.00 B2112,2013-01-10 02:33:00,
2013-01-09 18:38:00,46.3,41.1,29.99,ESE,103,1.0,3.0,82,0.00,,,0.04,LWC V2.00 B2112,2013-01-10 02:38:00,
2013-01-09 18:43:00,46.2,41.3,29.99,SSE,155,1.0,5.0,83,0.00,,,0.04,LWC V2.00 B2112,2013-01-10 02:43:00,
2013-01-09 18:48:00,46.3,41.1,29.99,ESE,122,2.0,2.0,82,0.00,,,0.04,LWC V2.00 B2112,2013-01-10 02:48:00,
2013-01-09 18:53:00,46.3,41.4,29.99,South,169,1.0,2.0,83,0.00,,,0.04,LWC V2.00 B2112,2013-01-10 02:53:00,
2013-01-09 18:58:00,46.3,41.1,29.99,ESE,103,2.0,4.0,82,0.00,,,0.04,LWC V2.00 B2112,2013-01-10 02:58:00,
2013-01-09 19:03:00,46.4,41.2,30.00,SSE,159,1.0,5.0,82,0.00,,,0.04,LWC V2.00 B2112,2013-01-10 03:03:00,
2013-01-09 19:08:00,46.4,41.2,29.99,South,184,3.0,6.0,82,0.00,,,0.04,LWC V2.00 B2112,2013-01-10 03:08:00,
2013-01-09 19:13:00,46.4,41.2,29.99,East,84,3.0,3.0,82,0.00,,,0.04,LWC V2.00 B2112,2013-01-10 03:13:00,
2013-01-09 19:18:00,46.2,41.0,30.00,ESE,113,1.0,3.0,82,0.00,,,0.04,LWC V2.00 B2112,2013-01-10 03:18:00,
2013-01-09 19:23:00,46.0,41.1,30.00,ESE,121,2.0,4.0,83,0.00,,,0.04,LWC V2.00 B2112,2013-01-10 03:23:00,
2013-01-09 19:28:00,46.0,40.8,30.00,WSW,239,0.0,1.0,82,0.00,,,0.04,LWC V2.00 B2112,2013-01-10 03:28:00,
2013-01-09 19:33:00,46.1,40.9,30.00,SE,141,1.0,1.0,82,0.00,,,0.04,LWC V2.00 B2112,2013-01-10 03:33:00,
2013-01-09 19:38:00,46.3,40.8,30.00,ESE,105,0.0,0.0,81,0.00,,,0.04,LWC V2.00 B2112,2013-01-10 03:38:00,
2013-01-09 19:43:00,46.2,40.7,30.01,East,86,3.0,3.0,81,0.00,,,0.04,LWC V2.00 B2112,2013-01-10 03:43:00,
2013-01-09 19:48:00,46.2,40.7,30.01,East,79,0.0,2.0,81,0.00,,,0.04,LWC V2.00 B2112,2013-01-10 03:48:00,
2013-01-09 19:53:00,46.3,40.5,30.01,NW,314,5.0,5.0,80,0.00,,,0.04,LWC V2.00 B2112,2013-01-10 03:53:00,
2013-01-09 19:58:00,46.3,40.1,30.01,SE,140,0.0,3.0,79,0.00,,,0.04,LWC V2.00 B2112,2013-01-10 03:58:00,
2013-01-09 20:03:00,46.2,40.4,30.01,SSE,158,0.0,5.0,80,0.00,,,0.04,LWC V2.00 B2112,2013-01-10 04:03:00,
2013-01-09 20:08:00,46.1,40.3,30.01,SE,137,1.0,2.0,80,0.00,,,0.04,LWC V2.00 B2112,2013-01-10 04:08:00,
2013-01-09 20:13:00,45.9,40.1,30.01,SSE,149,2.0,2.0,80,0.00,,,0.04,LWC V2.00 B2112,2013-01-10 04:13:00,
2013-01-09 20:18:00,45.7,40.2,30.01,ESE,109,1.0,1.0,81,0.00,,,0.04,LWC V2.00 B2112,2013-01-10 04:18:00,
2013-01-09 20:23:00,45.4,39.9,30.01,SSW,212,0.0,1.0,81,0.00,,,0.04,LWC V2.00 B2112,2013-01-10 04:23:00,
2013-01-09 20:28:00,45.1,39.9,30.01,SSE,147,1.0,1.0,82,0.00,,,0.04,LWC V2.00 B2112,2013-01-10 04:28:00,
2013-01-09 20:33:00,45.2,40.0,30.01,ESE,112,0.0,0.0,82,0.00,,,0.04,LWC V2.00 B2112,2013-01-10 04:33:00,
2013-01-09 20:38:00,45.1,39.9,30.01,East,83,0.0,1.0,82,0.00,,,0.04,LWC V2.00 B2112,2013-01-10 04:38:00,
2013-01-09 20:43:00,45.0,39.8,30.02,WSW,252,0.0,1.0,82,0.00,,,0.04,LWC V2.00 B2112,2013-01-10 04:43:00,
2013-01-09 20:48:00,44.9,40.1,30.02,East,84,1.0,2.0,83,0.00,,,0.04,LWC V2.00 B2112,2013-01-10 04:48:00,
2013-01-09 20:53:00,44.8,40.0,30.02,ESE,102,3.0,3.0,83,0.00,,,0.04,LWC V2.00 B2112,2013-01-10 04:53:00,
2013-01-09 20:58:00,45.2,40.3,30.02,SSE,163,1.0,3.0,83,0.00,,,0.04,LWC V2.00 B2112,2013-01-10 04:58:00,
2013-01-09 21:00:00,45.2,40.3,30.02,South,173,0.0,3.0,83,0.00,,,0.04,LWC V2.00 B2112,2013-01-10 05:00:00,
2013-01-09 21:05:00,45.5,40.3,30.03,ESE,110,10.0,11.0,82,0.00,,,0.04,LWC V2.00 B2112,2013-01-10 05:05:00,
2013-01-09 21:10:00,44.8,40.3,30.04,SSE,150,3.0,11.0,84,0.00,,,0.04,LWC V2.00 B2112,2013-01-10 05:10:00,
2013-01-09 21:15:00,44.1,40.2,30.03,ESE,108,1.0,2.0,86,0.00,,,0.05,LWC V2.00 B2112,2013-01-10 05:15:00,
2013-01-09 21:20:00,43.6,40.3,30.03,ESE,105,0.0,1.0,88,0.00,,,0.05,LWC V2.00 B2112,2013-01-10 05:20:00,
2013-01-09 21:25:00,43.2,40.2,30.03,SW,235,0.0,0.0,89,0.00,,,0.05,LWC V2.00 B2112,2013-01-10 05:25:00,
2013-01-09 21:30:00,42.9,40.2,30.03,SSE,160,1.0,3.0,90,0.00,,,0.05,LWC V2.00 B2112,2013-01-10 05:30:00,
2013-01-09 21:35:00,42.8,40.4,30.03,SSE,147,0.0,2.0,91,0.00,,,0.05,LWC V2.00 B2112,2013-01-10 05:35:00,
2013-01-09 21:40:00,42.5,40.1,30.03,SE,143,0.0,0.0,91,0.00,,,0.05,LWC V2.00 B2112,2013-01-10 05:40:00,
2013-01-09 21:45:00,42.2,39.8,30.03,SE,145,0.0,0.0,91,0.00,,,0.05,LWC V2.00 B2112,2013-01-10 05:45:00,
2013-01-09 21:50:00,41.8,39.6,30.03,SE,145,0.0,0.0,92,0.00,,,0.05,LWC V2.00 B2112,2013-01-10 05:50:00,
2013-01-09 21:55:00,41.6,39.7,30.04,WNW,290,0.0,4.0,93,0.00,,,0.05,LWC V2.00 B2112,2013-01-10 05:55:00,
2013-01-09 22:00:00,41.7,40.1,30.04,SSW,207,0.0,2.0,94,0.00,,,0.05,LWC V2.00 B2112,2013-01-10 06:00:00,
2013-01-09 22:05:00,42.0,40.1,30.04,East,94,1.0,4.0,93,0.00,,,0.05,LWC V2.00 B2112,2013-01-10 06:05:00,
2013-01-09 22:10:00,41.7,39.8,30.04,SE,135,0.0,4.0,93,0.00,,,0.00,LWC V2.00 B2112,2013-01-10 06:10:00,
2013-01-09 22:20:00,41.7,39.8,30.04,SE,135,0.0,4.0,93,0.00,,,0.00,LWC V2.00 B2112,2013-01-10 06:20:00,
2013-01-09 22:30:00,41.6,39.7,30.04,ESE,112,0.0,4.0,93,0.00,,,0.00,LWC V2.00 B2112,2013-01-10 06:30:00,
2013-01-09 22:40:00,41.6,39.7,30.04,ESE,112,0.0,4.0,93,0.00,,,0.00,LWC V2.00 B2112,2013-01-10 06:40:00,
2013-01-09 22:50:00,41.6,39.7,30.04,ESE,112,0.0,4.0,93,0.00,,,0.00,LWC V2.00 B2112,2013-01-10 06:50:00,
2013-01-09 23:00:00,42.9,40.7,30.05,ESE,112,0.0,5.0,92,0.00,,,0.00,LWC V2.00 B2112,2013-01-10 07:00:00,
2013-01-09 23:10:00,42.9,40.7,30.05,ESE,112,0.0,5.0,92,0.00,,,0.00,LWC V2.00 B2112,2013-01-10 07:10:00,
2013-01-09 23:20:00,42.9,40.7,30.05,ESE,112,0.0,5.0,92,0.00,,,0.00,LWC V2.00 B2112,2013-01-10 07:20:00,
2013-01-09 23:30:00,42.2,39.8,30.06,SSE,158,0.0,3.0,91,0.00,,,0.00,LWC V2.00 B2112,2013-01-10 07:30:00,
2013-01-09 23:40:00,42.2,39.8,30.06,SSE,158,0.0,3.0,91,0.00,,,0.00,LWC V2.00 B2112,2013-01-10 07:40:00,
2013-01-09 23:50:00,42.2,39.8,30.06,SSE,158,0.0,3.0,91,0.00,,,0.00,LWC V2.00 B2112,2013-01-10 07:50:00,